Monday, December 22, 2014
07:03 UTC
  |  Log In   |  Register Free
Airport Search:

Comanche County-City Airport
(KMKN)

Comanche County-City Airport Diagram
No Airport Diagram Available

FAA data valid effective November 13, 2014 - January 08, 2015 (unless otherwise noted).

 
 
 
 
 
 
 
 
 
 
 
 
 
 

Current Aviation Weather for Comanche County-City Airport (KMKN)

The most recent METAR observation for KMKN was updated at: 2116
METAR Summary (Translated METAR)
KMKN
182055Z AUTO 00000KT 10SM CLR 18/09 A3005 RMK AO2 T01790090
KBWD
182055Z AUTO 34004KT 10SM CLR 18/05 A3005 RMK AO2
(19.7 nm SW from KMKN)
KMNZ
182055Z AUTO 00000KT 10SM CLR 19/09 A3005 RMK AO2 T01860090
(27.6 nm SE from KMKN)
TAF
No TAF information found within 50 nm of KMKN
  Airport Weather Conditions for KMKN

 Current Weather at MKN
48° F
Fair and Breezy
South winds at 21.9 mph
MKN NOAA Radar

Pressure: 29.72 in
Humidity: 100%
Wind: from the South at 21.9 gusting to 28.8 MPH (19 gusting to 25 KT)
Dew Point: 48.2°F
Visibility: 10.00 mi


Airport Weather Forecast for KMKN

Translated METAR and TAF for KMKN
Translated METAR for KMKN (0704 UTC 22 December 2014)
found at http://aviationweather.gov/adds/metars/
 
METAR text: KMKN 220655Z AUTO 21019G26KT 10SM CLR 09/09 A2970 RMK AO2 T00900089
Conditions at: KMKN (COMANCHE , TX, US) observed 0655 UTC 22 December 2014
Temperature: 9.0°C (48°F)
Dewpoint: 8.9°C (48°F) [RH = 99%]
Pressure (altimeter): 29.70 inches Hg (1005.8 mb)
Winds: from the SSW (210 degrees) at 22 MPH (19 knots; 9.9 m/s)
gusting to 30 MPH (26 knots; 13.5 m/s)
Visibility: 10 or more miles (16+ km)
Ceiling: at least 12,000 feet AGL
Clouds: sky clear below 12,000 feet AGL
Weather: automated observation with no human augmentation;
there may or may not be significant weather present at this time
Translated TAF for KMKN

There is no translated TAF available for this airport

Find All Airport Services Find A Hotel Find A Rental Car Find A Golf Course Find A Restaurant $100 Hamburger



FBO's on the Field
FBO Company Facility Photos Services Transportation Aviation Fuel Prices: Prices include tax
Catering Weather Repair Courtesy Rental Type 100LL JetA JetA+ MOGAS 8087
 
Add another FBO Facility Photos Catering Weather Repair Courtesy Rental Type 100LL JetA JetA+ MOGAS 8087
Services Transportation Aviation Fuel Prices: Prices include tax
There are no FBO's currently reporting fuel at MKN. List your FBO now


model-print
model-print
model-print
model-print